createdAt,value
2019-04-05T00:00:54.525Z,10.53
2019-04-05T00:03:22.863Z,10.63
2019-04-05T00:05:51.194Z,11.05
2019-04-05T00:08:19.530Z,11.40
2019-04-05T00:10:47.861Z,12.10
2019-04-05T00:13:16.202Z,11.35
2019-04-05T00:15:45.000Z,12.05
2019-04-05T00:18:13.357Z,13.20
2019-04-05T00:20:41.679Z,12.13
2019-04-05T00:23:10.295Z,12.93
2019-04-05T00:25:39.083Z,12.80
2019-04-05T00:28:07.411Z,13.78
2019-04-05T00:30:35.740Z,12.98
2019-04-05T00:33:04.044Z,12.80
2019-04-05T00:35:32.381Z,12.98
2019-04-05T00:38:00.702Z,13.80
2019-04-05T00:40:29.466Z,12.73
2019-04-05T00:42:57.775Z,12.85
2019-04-05T00:45:28.429Z,14.18
2019-04-05T00:47:56.169Z,13.75
2019-04-05T00:50:24.815Z,13.30
2019-04-05T00:52:53.166Z,13.77
2019-04-05T00:55:21.471Z,13.78
2019-04-05T00:57:49.966Z,14.43
2019-04-05T01:00:18.346Z,14.30
2019-04-05T01:02:46.930Z,13.87
2019-04-05T01:05:15.706Z,13.50
2019-04-05T01:07:44.218Z,13.40
2019-04-05T01:10:13.573Z,13.90
2019-04-05T01:12:42.479Z,14.35
2019-04-05T01:15:12.288Z,14.15
2019-04-05T01:17:40.782Z,14.40
2019-04-05T01:20:11.286Z,14.70
2019-04-05T01:22:41.439Z,14.75
2019-04-05T01:25:09.760Z,14.83
2019-04-05T01:27:40.101Z,14.65
2019-04-05T01:30:11.619Z,13.53
2019-04-05T01:32:40.357Z,13.95
2019-04-05T01:35:09.147Z,13.98
2019-04-05T01:37:38.353Z,14.30
2019-04-05T01:40:08.011Z,14.80
2019-04-05T01:42:37.483Z,14.20
2019-04-05T01:45:07.914Z,14.20
2019-04-05T01:47:36.791Z,15.20
2019-04-05T01:50:07.102Z,14.18
2019-04-05T01:52:35.779Z,14.90
2019-04-05T01:55:05.221Z,14.87
2019-04-05T01:57:33.568Z,14.78
2019-04-05T02:00:02.180Z,15.00
2019-04-05T02:02:30.593Z,14.00
2019-04-05T02:04:58.947Z,14.53
2019-04-05T02:07:27.277Z,14.27
2019-04-05T02:09:55.632Z,14.00
2019-04-05T02:12:24.372Z,13.30
2019-04-05T02:14:52.801Z,14.37
2019-04-05T02:17:21.114Z,13.60
2019-04-05T02:19:49.455Z,14.10
2019-04-05T02:22:17.786Z,14.05
2019-04-05T02:24:46.131Z,14.53
2019-04-05T02:27:14.732Z,14.63
2019-04-05T02:29:43.517Z,15.05
2019-04-05T02:32:11.818Z,14.80
2019-04-05T02:34:40.166Z,16.00
2019-04-05T02:37:08.481Z,16.12
2019-04-05T02:39:36.809Z,16.02
2019-04-05T02:42:05.569Z,15.20
2019-04-05T02:44:34.555Z,14.50
2019-04-05T02:47:03.660Z,14.98
2019-04-05T02:49:32.347Z,15.13
2019-04-05T02:52:01.885Z,14.45
2019-04-05T02:54:30.655Z,14.23
2019-04-05T02:56:59.573Z,14.40
2019-04-05T02:59:28.029Z,14.50
2019-04-05T03:01:56.702Z,14.85
2019-04-05T03:04:25.097Z,14.13
2019-04-05T03:06:53.708Z,14.10
2019-04-05T03:09:22.908Z,14.73
2019-04-05T03:11:51.482Z,14.35
2019-04-05T03:14:20.668Z,14.15
2019-04-05T03:16:50.976Z,15.53
2019-04-05T03:19:21.929Z,15.00
2019-04-05T03:21:52.217Z,14.90
2019-04-05T03:24:23.229Z,14.30
2019-04-05T03:26:57.570Z,14.13
2019-04-05T03:29:26.134Z,13.40
2019-04-05T03:31:54.646Z,14.83
2019-04-05T03:34:23.203Z,14.60
2019-04-05T03:36:52.420Z,14.00
2019-04-05T03:39:21.870Z,15.32
2019-04-05T03:41:50.310Z,14.60
2019-04-05T03:44:22.675Z,14.50
2019-04-05T03:46:56.527Z,15.18
2019-04-05T03:49:18.876Z,14.50
2019-04-05T03:51:47.275Z,14.97
2019-04-05T03:54:15.738Z,14.13
2019-04-05T03:56:44.217Z,13.85
2019-04-05T03:59:12.538Z,14.00
2019-04-05T04:01:40.906Z,14.65
2019-04-05T04:04:09.201Z,15.53
2019-04-05T04:06:37.507Z,13.98
2019-04-05T04:09:06.492Z,14.70
2019-04-05T04:11:34.849Z,14.10
2019-04-05T04:14:03.240Z,15.80
2019-04-05T04:16:31.888Z,15.37
2019-04-05T04:19:00.762Z,15.08
2019-04-05T04:21:37.330Z,15.85
2019-04-05T04:24:05.916Z,16.07
2019-04-05T04:26:34.667Z,14.60
2019-04-05T04:29:03.617Z,15.95
2019-04-05T04:31:31.923Z,15.50
2019-04-05T04:34:00.605Z,16.50
2019-04-05T04:36:29.274Z,16.30
2019-04-05T04:38:57.783Z,17.80
2019-04-05T04:41:26.171Z,17.00
2019-04-05T04:43:54.833Z,17.00
2019-04-05T04:46:23.153Z,17.62
2019-04-05T04:48:51.446Z,17.27
2019-04-05T04:51:20.017Z,17.40
2019-04-05T04:53:48.686Z,18.30
2019-04-05T04:56:17.069Z,18.30
2019-04-05T04:58:46.400Z,19.92
2019-04-05T05:01:14.933Z,19.00
2019-04-05T05:03:43.239Z,18.53
2019-04-05T05:06:11.710Z,20.08
2019-04-05T05:08:40.223Z,18.23
2019-04-05T05:11:14.787Z,18.37
2019-04-05T05:13:39.090Z,19.62
2019-04-05T05:16:07.670Z,19.92
2019-04-05T05:18:36.053Z,20.30
2019-04-05T05:21:04.476Z,20.15
2019-04-05T05:23:33.584Z,19.40
2019-04-05T05:26:02.064Z,20.35
2019-04-05T05:28:32.829Z,21.20
2019-04-05T05:31:00.706Z,20.00
2019-04-05T05:33:29.082Z,21.60
2019-04-05T05:35:57.371Z,21.17
2019-04-05T05:38:25.793Z,21.73
2019-04-05T05:40:54.190Z,21.82
2019-04-05T05:43:23.994Z,21.40
2019-04-05T05:45:52.572Z,21.87
2019-04-05T05:48:21.192Z,21.85
2019-04-05T05:50:49.522Z,20.97
2019-04-05T05:53:17.837Z,22.60
2019-04-05T05:55:46.135Z,21.70
2019-04-05T05:58:14.438Z,20.30
2019-04-05T06:00:42.753Z,21.77
2019-04-05T06:03:12.083Z,22.25
2019-04-05T06:05:40.433Z,22.58
2019-04-05T06:08:08.730Z,22.20
2019-04-05T06:10:37.057Z,22.07
2019-04-05T06:13:07.153Z,21.50
2019-04-05T06:15:37.485Z,20.75
2019-04-05T06:18:05.465Z,21.33
2019-04-05T06:20:33.796Z,21.50
2019-04-05T06:23:02.090Z,20.70
2019-04-05T06:25:30.441Z,21.82
2019-04-05T06:27:59.878Z,21.37
2019-04-05T06:30:28.934Z,20.57
2019-04-05T06:32:57.264Z,20.70
2019-04-05T06:35:25.576Z,21.02
2019-04-05T06:37:54.216Z,20.55
2019-04-05T06:40:22.542Z,20.88
2019-04-05T06:42:50.873Z,21.50
2019-04-05T06:45:19.177Z,19.90
2019-04-05T06:47:47.835Z,20.75
2019-04-05T06:50:16.145Z,20.50
2019-04-05T06:52:44.713Z,22.60
2019-04-05T06:55:13.036Z,20.17
2019-04-05T06:57:41.573Z,21.33
2019-04-05T07:00:10.050Z,20.70
2019-04-05T07:02:38.418Z,19.80
2019-04-05T07:05:07.561Z,20.40
2019-04-05T07:07:36.277Z,17.87
2019-04-05T07:10:06.242Z,18.73
2019-04-05T07:12:34.559Z,18.02
2019-04-05T07:15:03.019Z,18.85
2019-04-05T07:17:31.333Z,18.27
2019-04-05T07:19:59.625Z,19.20
2019-04-05T07:22:38.519Z,17.92
2019-04-05T07:24:57.953Z,17.70
2019-04-05T07:27:26.317Z,17.02
2019-04-05T07:29:54.621Z,17.07
2019-04-05T07:32:22.949Z,17.82
2019-04-05T07:34:51.236Z,17.10
2019-04-05T07:37:19.546Z,16.80
2019-04-05T07:39:47.863Z,16.70
2019-04-05T07:42:16.201Z,16.77
2019-04-05T07:44:44.507Z,16.07
2019-04-05T07:47:12.801Z,16.07
2019-04-05T07:49:41.255Z,16.30
2019-04-05T07:52:09.552Z,15.58
2019-04-05T07:54:37.880Z,16.00
2019-04-05T07:57:06.236Z,15.32
2019-04-05T07:59:34.677Z,14.50
2019-04-05T08:02:03.281Z,15.72
2019-04-05T08:04:31.596Z,14.50
2019-04-05T08:07:01.793Z,14.23
2019-04-05T08:09:31.180Z,14.70
2019-04-05T08:11:59.862Z,14.75
2019-04-05T08:14:28.657Z,15.43
2019-04-05T08:16:57.029Z,13.80
2019-04-05T08:19:25.325Z,14.55
2019-04-05T08:21:53.639Z,14.63
2019-04-05T08:24:22.264Z,14.80
2019-04-05T08:26:50.610Z,14.68
2019-04-05T08:29:18.990Z,15.75
2019-04-05T08:31:47.339Z,15.73
2019-04-05T08:34:15.623Z,15.70
2019-04-05T08:36:44.263Z,14.93
2019-04-05T08:39:12.796Z,15.08
2019-04-05T08:41:41.173Z,15.43
2019-04-05T08:44:09.627Z,15.90
2019-04-05T08:46:37.937Z,16.17
2019-04-05T08:49:10.820Z,16.07
2019-04-05T08:51:36.899Z,15.18
2019-04-05T08:54:05.348Z,15.98
2019-04-05T08:56:33.810Z,16.30
2019-04-05T08:59:02.115Z,15.23
2019-04-05T09:01:30.715Z,16.30
2019-04-05T09:03:59.103Z,16.80
2019-04-05T09:06:27.396Z,15.80
2019-04-05T09:08:55.727Z,16.25
2019-04-05T09:11:24.334Z,15.80
2019-04-05T09:13:52.641Z,15.78
2019-04-05T09:16:20.940Z,16.82
2019-04-05T09:18:49.742Z,16.60
2019-04-05T09:21:18.354Z,16.60
2019-04-05T09:23:46.932Z,16.65
2019-04-05T09:26:15.509Z,16.90
2019-04-05T09:28:43.812Z,17.00
2019-04-05T09:31:12.100Z,16.87
2019-04-05T09:33:40.411Z,16.62
2019-04-05T09:36:08.712Z,15.65
2019-04-05T09:38:37.025Z,16.50
2019-04-05T09:41:05.889Z,16.32
2019-04-05T09:43:34.679Z,16.65
2019-04-05T09:46:02.993Z,17.10
2019-04-05T09:48:31.381Z,16.57
2019-04-05T09:50:59.706Z,16.75
2019-04-05T09:53:28.000Z,18.30
2019-04-05T09:55:56.597Z,20.72
2019-04-05T09:58:24.908Z,16.95
2019-04-05T10:00:53.256Z,17.45
2019-04-05T10:03:21.672Z,16.50
2019-04-05T10:05:49.981Z,16.17
2019-04-05T10:08:18.479Z,18.20
2019-04-05T10:10:46.786Z,17.82
2019-04-05T10:13:15.353Z,17.82
2019-04-05T10:15:44.117Z,16.52
2019-04-05T10:18:12.422Z,16.87
2019-04-05T10:20:40.718Z,15.25
2019-04-05T10:23:09.013Z,15.13
2019-04-05T10:25:37.336Z,16.85
2019-04-05T10:28:05.789Z,14.95
2019-04-05T10:30:34.092Z,15.50
2019-04-05T10:33:02.400Z,15.13
2019-04-05T10:35:31.048Z,16.17
2019-04-05T10:37:59.356Z,16.40
2019-04-05T10:40:27.687Z,15.90
2019-04-05T10:42:55.999Z,15.30
2019-04-05T10:45:24.496Z,16.00
2019-04-05T10:47:53.164Z,15.03
2019-04-05T10:50:21.653Z,15.45
2019-04-05T10:52:49.938Z,14.55
2019-04-05T10:55:18.305Z,14.20
2019-04-05T10:57:46.722Z,15.53
2019-04-05T11:00:16.429Z,15.70
2019-04-05T11:02:44.813Z,15.08
2019-04-05T11:05:13.672Z,15.90
2019-04-05T11:07:41.978Z,15.18
2019-04-05T11:10:10.599Z,15.10
2019-04-05T11:12:38.922Z,15.80
2019-04-05T11:15:08.386Z,17.00
2019-04-05T11:17:36.685Z,18.00
2019-04-05T11:20:21.145Z,18.30
2019-04-05T11:22:40.357Z,18.35
2019-04-05T11:25:10.669Z,17.37
2019-04-05T11:27:38.992Z,16.70
2019-04-05T11:30:09.755Z,16.12
2019-04-05T11:32:38.275Z,16.50
2019-04-05T11:35:07.757Z,16.80
2019-04-05T11:37:39.376Z,16.35
2019-04-05T11:40:07.989Z,16.45
2019-04-05T11:42:37.846Z,16.95
2019-04-05T11:45:07.971Z,15.40
2019-04-05T11:47:38.359Z,15.60
2019-04-05T11:50:09.739Z,14.78
2019-04-05T11:52:38.120Z,15.13
2019-04-05T11:55:07.999Z,16.30
2019-04-05T11:57:36.440Z,15.10
2019-04-05T12:00:13.932Z,15.75
2019-04-05T12:02:52.809Z,15.20
2019-04-05T12:05:22.874Z,14.25
2019-04-05T12:07:51.456Z,14.70
2019-04-05T12:10:19.866Z,14.70
2019-04-05T12:12:48.227Z,16.33
2019-04-05T12:15:17.181Z,16.77
2019-04-05T12:17:45.508Z,16.55
2019-04-05T12:20:14.395Z,16.90
2019-04-05T12:22:43.038Z,16.90
2019-04-05T12:25:11.401Z,18.65
2019-04-05T12:27:40.005Z,18.02
2019-04-05T12:30:10.281Z,20.00
2019-04-05T12:32:41.532Z,22.95
2019-04-05T12:35:09.140Z,21.90
2019-04-05T12:37:49.432Z,23.25
2019-04-05T12:40:10.379Z,18.97
2019-04-05T12:42:37.820Z,15.78
2019-04-05T12:45:07.280Z,18.07
2019-04-05T12:47:35.936Z,17.75
2019-04-05T12:50:08.282Z,17.33
2019-04-05T12:52:36.624Z,17.63
2019-04-05T12:55:06.186Z,17.98
2019-04-05T12:57:34.476Z,18.10
2019-04-05T13:00:03.424Z,18.30
2019-04-05T13:02:33.947Z,17.17
2019-04-05T13:05:01.766Z,16.97
2019-04-05T13:07:30.066Z,17.12
2019-04-05T13:09:58.387Z,16.95
2019-04-05T13:12:27.136Z,16.15
2019-04-05T13:15:05.315Z,15.55
2019-04-05T13:17:25.491Z,15.60
2019-04-05T13:19:53.809Z,15.23
2019-04-05T13:22:23.518Z,14.90
2019-04-05T13:24:51.989Z,15.20
2019-04-05T13:27:20.277Z,14.68
2019-04-05T13:29:49.197Z,14.50
2019-04-05T13:32:21.498Z,13.90
2019-04-05T13:34:48.771Z,14.43
2019-04-05T13:37:20.358Z,15.10
2019-04-05T13:39:47.100Z,14.60
2019-04-05T13:42:15.420Z,14.78
2019-04-05T13:44:43.716Z,14.33
2019-04-05T13:47:12.084Z,14.50
2019-04-05T13:49:40.682Z,14.63
2019-04-05T13:52:12.014Z,14.93
2019-04-05T13:54:40.346Z,13.97
2019-04-05T13:57:11.403Z,14.47
2019-04-05T13:59:39.285Z,12.90
2019-04-05T14:02:07.659Z,13.70
2019-04-05T14:04:36.264Z,14.40
2019-04-05T14:07:04.649Z,13.45
2019-04-05T14:09:33.067Z,13.77
2019-04-05T14:12:01.753Z,14.50
2019-04-05T14:14:30.067Z,16.05
2019-04-05T14:16:58.358Z,14.10
2019-04-05T14:19:28.893Z,13.95
2019-04-05T14:22:07.817Z,15.48
2019-04-05T14:24:26.782Z,15.60
2019-04-05T14:26:55.081Z,15.50
2019-04-05T14:29:23.405Z,15.55
2019-04-05T14:31:51.690Z,15.43
2019-04-05T14:34:23.442Z,16.10
2019-04-05T14:36:51.955Z,15.63
2019-04-05T14:39:20.340Z,14.80
2019-04-05T14:41:48.662Z,14.73
2019-04-05T14:44:16.969Z,14.20
2019-04-05T14:46:45.761Z,14.25
2019-04-05T14:49:14.366Z,15.30
2019-04-05T14:51:52.649Z,14.40
2019-04-05T14:54:12.741Z,14.47
2019-04-05T14:56:41.060Z,14.07
2019-04-05T14:59:09.353Z,13.90
2019-04-05T15:01:37.678Z,14.93
2019-04-05T15:04:05.977Z,14.65
2019-04-05T15:06:34.536Z,13.80
2019-04-05T15:09:03.198Z,13.70
2019-04-05T15:11:31.507Z,14.43
2019-04-05T15:13:59.917Z,14.00
2019-04-05T15:16:28.566Z,13.25
2019-04-05T15:18:56.856Z,13.50
2019-04-05T15:21:25.416Z,13.85
2019-04-05T15:23:53.753Z,14.07
2019-04-05T15:26:22.060Z,13.90
2019-04-05T15:28:54.619Z,15.93
2019-04-05T15:31:20.987Z,15.33
2019-04-05T15:33:49.285Z,15.78
2019-04-05T15:36:17.584Z,14.80
2019-04-05T15:38:45.905Z,15.35
2019-04-05T15:41:14.444Z,15.70
2019-04-05T15:43:42.756Z,17.23
2019-04-05T15:46:11.093Z,16.80
2019-04-05T15:48:39.428Z,18.15
2019-04-05T15:51:07.694Z,16.87
2019-04-05T15:53:36.035Z,16.42
2019-04-05T15:56:04.890Z,17.32
2019-04-05T15:58:34.088Z,17.32
2019-04-05T16:01:04.860Z,17.33
2019-04-05T16:03:33.589Z,16.90
2019-04-05T16:06:02.167Z,23.05
2019-04-05T16:08:30.879Z,19.07
2019-04-05T16:10:59.218Z,18.20
2019-04-05T16:13:27.822Z,19.82
2019-04-05T16:15:56.130Z,18.32
2019-04-05T16:18:24.499Z,18.07
2019-04-05T16:20:52.817Z,17.75
2019-04-05T16:23:21.117Z,17.20
2019-04-05T16:25:49.425Z,19.60
2019-04-05T16:28:17.758Z,18.20
2019-04-05T16:30:46.508Z,18.07
2019-04-05T16:33:14.790Z,18.05
2019-04-05T16:35:43.332Z,18.10
2019-04-05T16:38:11.648Z,18.40
2019-04-05T16:40:39.945Z,17.92
2019-04-05T16:43:08.257Z,18.90
2019-04-05T16:45:38.570Z,18.30
2019-04-05T16:48:06.598Z,18.95
2019-04-05T16:50:35.138Z,17.42
2019-04-05T16:53:03.455Z,18.23
2019-04-05T16:55:32.110Z,18.20
2019-04-05T16:58:00.413Z,16.45
2019-04-05T17:00:28.820Z,17.50
2019-04-05T17:02:57.093Z,16.80
2019-04-05T17:05:25.380Z,16.45
2019-04-05T17:07:53.758Z,16.62
2019-04-05T17:10:22.044Z,17.20
2019-04-05T17:12:50.353Z,17.55
2019-04-05T17:15:18.639Z,16.70
2019-04-05T17:17:46.964Z,17.15
2019-04-05T17:20:15.695Z,16.20
2019-04-05T17:22:57.127Z,16.67
2019-04-05T17:25:15.096Z,17.20
2019-04-05T17:27:43.424Z,17.70
2019-04-05T17:30:11.703Z,17.10
2019-04-05T17:32:40.021Z,17.45
2019-04-05T17:35:08.400Z,17.75
2019-04-05T17:37:36.711Z,16.97
2019-04-05T17:40:07.018Z,17.90
2019-04-05T17:42:35.313Z,18.40
2019-04-05T17:45:05.458Z,17.47
2019-04-05T17:47:33.826Z,17.17
2019-04-05T17:50:02.428Z,18.57
2019-04-05T17:52:30.721Z,19.00
2019-04-05T17:54:59.281Z,19.20
2019-04-05T17:57:27.565Z,18.73
2019-04-05T17:59:56.053Z,19.27
2019-04-05T18:02:24.337Z,18.70
2019-04-05T18:04:52.622Z,19.62
2019-04-05T18:07:21.227Z,18.90
2019-04-05T18:09:49.522Z,18.70
2019-04-05T18:12:17.822Z,19.35
2019-04-05T18:14:46.120Z,21.90
2019-04-05T18:17:14.702Z,22.45
2019-04-05T18:19:43.001Z,24.30
2019-04-05T18:22:11.312Z,22.00
2019-04-05T18:24:39.589Z,21.73
2019-04-05T18:27:07.890Z,22.67
2019-04-05T18:29:36.178Z,23.25
2019-04-05T18:32:04.466Z,22.85
2019-04-05T18:34:33.211Z,23.12
2019-04-05T18:37:01.524Z,24.50
2019-04-05T18:39:29.836Z,24.40
2019-04-05T18:41:58.432Z,25.25
2019-04-05T18:44:26.767Z,24.40
2019-04-05T18:46:55.112Z,24.30
2019-04-05T18:49:23.783Z,23.38
2019-04-05T18:51:52.066Z,25.27
2019-04-05T18:54:20.375Z,25.30
2019-04-05T18:56:48.678Z,26.42
2019-04-05T18:59:17.019Z,27.70
2019-04-05T19:01:45.302Z,27.67
2019-04-05T19:04:13.664Z,26.05
2019-04-05T19:06:42.089Z,27.13
2019-04-05T19:09:11.847Z,26.23
2019-04-05T19:11:40.487Z,25.97
2019-04-05T19:14:08.827Z,25.97
2019-04-05T19:16:37.141Z,23.73
2019-04-05T19:19:05.436Z,23.40
2019-04-05T19:21:34.025Z,23.45
2019-04-05T19:24:02.666Z,25.73
2019-04-05T19:26:30.992Z,23.27
2019-04-05T19:28:59.947Z,23.77
2019-04-05T19:48:59.420Z,22.50
2019-04-05T19:51:27.713Z,24.25
2019-04-05T19:54:01.276Z,23.85
2019-04-05T19:56:26.384Z,24.70
2019-04-05T19:58:54.961Z,24.52
2019-04-05T20:01:23.264Z,23.42
2019-04-05T20:03:51.656Z,24.50
2019-04-05T20:06:19.958Z,26.12
2019-04-05T20:08:48.263Z,25.57
2019-04-05T20:11:18.034Z,26.77
2019-04-05T20:13:46.455Z,25.92
2019-04-05T20:16:14.994Z,27.05
2019-04-05T20:18:43.355Z,26.37
2019-04-05T20:21:11.678Z,27.60
2019-04-05T20:23:47.392Z,28.17
2019-04-05T20:26:10.021Z,27.20
2019-04-05T20:28:38.307Z,28.38
2019-04-05T20:31:06.626Z,27.42
2019-04-05T20:33:34.952Z,27.50
2019-04-05T20:36:03.266Z,26.25
2019-04-05T20:38:31.554Z,27.02
2019-04-05T20:40:59.860Z,27.77
2019-04-05T20:43:28.161Z,27.45
2019-04-05T20:45:56.832Z,27.58
2019-04-05T20:48:25.134Z,26.10
2019-04-05T20:50:53.450Z,27.20
2019-04-05T20:53:22.051Z,27.60
2019-04-05T20:55:50.365Z,29.10
2019-04-05T20:58:18.920Z,29.60
2019-04-05T21:00:47.247Z,31.10
2019-04-05T21:03:16.005Z,28.75
2019-04-05T21:05:44.430Z,28.60
2019-04-05T21:08:12.725Z,29.40
2019-04-05T21:10:41.037Z,29.18
2019-04-05T21:13:09.329Z,28.98
2019-04-05T21:15:37.636Z,29.77
2019-04-05T21:18:06.256Z,30.80
2019-04-05T21:20:34.977Z,30.93
2019-04-05T21:23:03.662Z,31.82
2019-04-05T21:25:31.999Z,32.60
2019-04-05T21:28:00.310Z,29.90
2019-04-05T21:30:28.658Z,30.85
2019-04-05T21:32:56.981Z,30.17
2019-04-05T21:35:25.338Z,39.18
2019-04-05T21:37:53.654Z,44.20
2019-04-05T21:40:21.997Z,32.65
2019-04-05T21:42:50.402Z,37.57
2019-04-05T21:45:18.793Z,33.18
2019-04-05T21:47:47.116Z,31.62
2019-04-05T21:50:15.513Z,34.35
2019-04-05T21:52:44.216Z,32.45
2019-04-05T21:55:13.073Z,31.95
2019-04-05T21:57:41.396Z,31.52
2019-04-05T22:00:33.314Z,31.93
2019-04-05T22:03:01.643Z,33.70
2019-04-05T22:05:29.971Z,32.33
2019-04-05T22:07:58.670Z,31.87
2019-04-05T22:10:27.175Z,33.20
2019-04-05T22:12:58.779Z,33.85
2019-04-05T22:15:26.634Z,32.43
2019-04-05T22:17:55.001Z,33.15
2019-04-05T22:20:23.390Z,31.45
2019-04-05T22:22:51.724Z,32.83
2019-04-05T22:25:20.353Z,32.42
2019-04-05T22:27:49.391Z,33.05
2019-04-05T22:30:18.014Z,33.02
2019-04-05T22:32:46.342Z,32.73
2019-04-05T22:35:15.013Z,32.80
2019-04-05T22:37:43.468Z,33.53
2019-04-05T22:40:12.168Z,34.33
2019-04-05T22:42:40.519Z,34.05
2019-04-05T22:45:09.024Z,34.73
2019-04-05T22:47:37.369Z,33.70
2019-04-05T22:50:06.498Z,34.03
2019-04-05T22:52:37.532Z,33.60
2019-04-05T22:55:11.560Z,33.80
2019-04-05T22:57:36.833Z,33.90
2019-04-05T23:00:07.064Z,36.00
2019-04-05T23:02:35.445Z,35.67
2019-04-05T23:05:04.530Z,33.90
2019-04-05T23:07:32.888Z,35.08
2019-04-05T23:10:01.523Z,35.52
2019-04-05T23:12:29.894Z,35.68
2019-04-05T23:14:58.223Z,35.57
2019-04-05T23:17:26.581Z,35.33
2019-04-05T23:19:54.908Z,35.17
2019-04-05T23:22:23.271Z,34.63
2019-04-05T23:24:51.639Z,36.35
2019-04-05T23:27:20.008Z,36.07
2019-04-05T23:29:48.334Z,35.08
2019-04-05T23:32:16.674Z,35.05
2019-04-05T23:34:45.014Z,34.33
2019-04-05T23:37:13.351Z,33.05
2019-04-05T23:39:41.746Z,35.38
2019-04-05T23:42:10.109Z,35.20
2019-04-05T23:44:38.721Z,34.85
2019-04-05T23:47:07.402Z,34.92
2019-04-05T23:49:35.758Z,34.60
2019-04-05T23:52:04.130Z,34.10
2019-04-05T23:54:32.475Z,35.60
2019-04-05T23:57:00.804Z,33.75
2019-04-05T23:59:29.160Z,35.47
